Portavogie, United Kingdom
Current Conditions -  °F | °C
As of 8:20 PM on Friday 21 Nov 2014 (Local Time) from EGAC Reporting Station
Light Rain Light Rain  
Wind Chill: 50°   Ceiling: 4900
Heat Index: 50°   Visibility: 6mi
Dew Point: 48°   Wind: 23mph
Humidity: 94%   Direction: 130°SE
Pressure: 29.68"   Gusts: 35mph
Location:  54.46°N, 5.44°W
Report Text: EGAC 212020Z 13020G30KT 9999 -RA FEW007 SCT011 BKN049 10/09 Q1005
Loading
Personal Weather Stations






























Interactive Weather Map New forecast layout! Learn more

10-Day Weather Forecast

Advertisements
Track Severe Weather on mobile